Current Weather

Gary/Chicago Intl

Gary, Indiana (KGYY)

Report from: Monday, February 6, 2023 12:35 AM CST
Current time: Monday, February 6, 2023 12:52 AM CST

Nearby weather
Weather history
Weather forecast

Temperature-0.4°C (31.3°F)
Wind chill-4.1°C (24.7°F)
Dew point-4.2°C (24.4°F)
Winds 6 kts (3.1 m/s, 6.9 mph) North (10°)
Visibility10 mi. (16.1 km)
Clouds Sky clear
Altimeter30.18 in.Hg (1022 mB)
Relative humidity75 %
Density altitude-2,112 ft. (-644 m)
Remarks Fully automated report
Automated weather observing station with precipitation discriminator
Flight conditions Visual Meteorological Conditions
Raw dataKGYY 060635Z AUTO 01006KT 10SM CLR 00/M04 A3018 RMK AO2 T10041042
An error has occurred. This application may no longer respond until reloaded. Reload 🗙